sensor_id;sensor_type;location;lat;lon;timestamp;temperature;humidity
11536;DHT22;5824;49.336;8.652;2023-02-28T00:02:16;1.60;1.00
11536;DHT22;5824;49.336;8.652;2023-02-28T00:04:44;2.00;1.00
11536;DHT22;5824;49.336;8.652;2023-02-28T00:07:10;1.50;1.00
11536;DHT22;5824;49.336;8.652;2023-02-28T00:09:36;1.50;1.00
11536;DHT22;5824;49.336;8.652;2023-02-28T00:12:01;1.50;1.00
11536;DHT22;5824;49.336;8.652;2023-02-28T00:14:36;1.50;1.00
11536;DHT22;5824;49.336;8.652;2023-02-28T00:17:02;1.50;1.00
11536;DHT22;5824;49.336;8.652;2023-02-28T00:19:27;1.50;1.00
11536;DHT22;5824;49.336;8.652;2023-02-28T00:21:53;1.70;1.00
11536;DHT22;5824;49.336;8.652;2023-02-28T00:24:18;1.60;1.00
11536;DHT22;5824;49.336;8.652;2023-02-28T00:26:44;1.40;1.00
11536;DHT22;5824;49.336;8.652;2023-02-28T00:29:10;1.40;1.00
11536;DHT22;5824;49.336;8.652;2023-02-28T00:31:35;1.40;1.00
11536;DHT22;5824;49.336;8.652;2023-02-28T00:34:01;1.40;1.00
11536;DHT22;5824;49.336;8.652;2023-02-28T00:36:26;1.90;1.00
11536;DHT22;5824;49.336;8.652;2023-02-28T00:38:52;1.80;1.00
11536;DHT22;5824;49.336;8.652;2023-02-28T00:41:17;1.50;1.00
11536;DHT22;5824;49.336;8.652;2023-02-28T00:43:43;1.30;1.00
11536;DHT22;5824;49.336;8.652;2023-02-28T00:46:08;1.30;1.00
11536;DHT22;5824;49.336;8.652;2023-02-28T00:48:34;1.70;1.00
11536;DHT22;5824;49.336;8.652;2023-02-28T00:51:00;1.30;1.00
11536;DHT22;5824;49.336;8.652;2023-02-28T00:53:26;1.50;1.00
11536;DHT22;5824;49.336;8.652;2023-02-28T00:55:51;1.50;1.00
11536;DHT22;5824;49.336;8.652;2023-02-28T00:58:17;1.40;1.00
11536;DHT22;5824;49.336;8.652;2023-02-28T01:00:43;1.40;1.00
11536;DHT22;5824;49.336;8.652;2023-02-28T01:03:08;1.40;1.00
11536;DHT22;5824;49.336;8.652;2023-02-28T01:05:34;1.80;1.00
11536;DHT22;5824;49.336;8.652;2023-02-28T01:07:59;1.60;1.00
11536;DHT22;5824;49.336;8.652;2023-02-28T01:10:25;1.60;1.00
11536;DHT22;5824;49.336;8.652;2023-02-28T01:12:52;1.30;1.00
11536;DHT22;5824;49.336;8.652;2023-02-28T01:15:18;1.30;1.00
11536;DHT22;5824;49.336;8.652;2023-02-28T01:17:43;1.30;1.00
11536;DHT22;5824;49.336;8.652;2023-02-28T01:20:10;1.80;1.00
11536;DHT22;5824;49.336;8.652;2023-02-28T01:22:35;1.20;1.00
11536;DHT22;5824;49.336;8.652;2023-02-28T01:25:01;1.20;1.00
11536;DHT22;5824;49.336;8.652;2023-02-28T01:27:26;1.10;1.00
11536;DHT22;5824;49.336;8.652;2023-02-28T01:29:52;1.40;1.00
11536;DHT22;5824;49.336;8.652;2023-02-28T01:32:17;1.20;1.00
11536;DHT22;5824;49.336;8.652;2023-02-28T01:34:43;1.60;1.00
11536;DHT22;5824;49.336;8.652;2023-02-28T01:39:34;1.10;1.00
11536;DHT22;5824;49.336;8.652;2023-02-28T01:42:00;1.40;1.00
11536;DHT22;5824;49.336;8.652;2023-02-28T01:44:58;1.20;1.00
11536;DHT22;5824;49.336;8.652;2023-02-28T01:47:27;1.20;1.00
11536;DHT22;5824;49.336;8.652;2023-02-28T01:49:53;1.10;1.00
11536;DHT22;5824;49.336;8.652;2023-02-28T01:52:20;1.10;1.00
11536;DHT22;5824;49.336;8.652;2023-02-28T01:54:49;1.30;1.00
11536;DHT22;5824;49.336;8.652;2023-02-28T01:57:18;1.50;1.00
11536;DHT22;5824;49.336;8.652;2023-02-28T01:59:54;1.60;1.00
11536;DHT22;5824;49.336;8.652;2023-02-28T02:02:24;1.10;1.00
11536;DHT22;5824;49.336;8.652;2023-02-28T02:05:35;1.00;1.00
11536;DHT22;5824;49.336;8.652;2023-02-28T02:07:43;1.00;1.00
11536;DHT22;5824;49.336;8.652;2023-02-28T02:10:36;1.00;1.00
11536;DHT22;5824;49.336;8.652;2023-02-28T02:16:26;0.90;1.00
11536;DHT22;5824;49.336;8.652;2023-02-28T02:22:08;0.90;1.00
11536;DHT22;5824;49.336;8.652;2023-02-28T02:33:09;0.80;1.00
11536;DHT22;5824;49.336;8.652;2023-02-28T02:35:52;0.50;1.00
11536;DHT22;5824;49.336;8.652;2023-02-28T02:41:26;0.80;1.00
11536;DHT22;5824;49.336;8.652;2023-02-28T02:46:43;0.70;1.00
11536;DHT22;5824;49.336;8.652;2023-02-28T02:49:21;1.00;1.00
11536;DHT22;5824;49.336;8.652;2023-02-28T02:51:48;0.70;1.00
11536;DHT22;5824;49.336;8.652;2023-02-28T02:54:19;0.60;1.00
11536;DHT22;5824;49.336;8.652;2023-02-28T02:56:47;1.10;1.00
11536;DHT22;5824;49.336;8.652;2023-02-28T02:59:18;1.20;1.00
11536;DHT22;5824;49.336;8.652;2023-02-28T03:01:48;0.70;1.00
11536;DHT22;5824;49.336;8.652;2023-02-28T03:04:20;0.70;1.00
11536;DHT22;5824;49.336;8.652;2023-02-28T03:06:46;0.70;1.00
11536;DHT22;5824;49.336;8.652;2023-02-28T03:09:12;1.00;1.00
11536;DHT22;5824;49.336;8.652;2023-02-28T03:11:38;0.90;1.00
11536;DHT22;5824;49.336;8.652;2023-02-28T03:14:30;0.70;1.00
11536;DHT22;5824;49.336;8.652;2023-02-28T03:17:23;0.70;1.00
11536;DHT22;5824;49.336;8.652;2023-02-28T03:20:04;0.60;1.00
11536;DHT22;5824;49.336;8.652;2023-02-28T03:22:45;0.60;1.00
11536;DHT22;5824;49.336;8.652;2023-02-28T03:28:28;0.60;1.00
11536;DHT22;5824;49.336;8.652;2023-02-28T03:31:24;0.50;1.00
11536;DHT22;5824;49.336;8.652;2023-02-28T03:34:04;0.80;1.00
11536;DHT22;5824;49.336;8.652;2023-02-28T03:36:41;0.50;1.00
11536;DHT22;5824;49.336;8.652;2023-02-28T03:39:14;0.60;1.00
11536;DHT22;5824;49.336;8.652;2023-02-28T03:41:45;0.50;1.00
11536;DHT22;5824;49.336;8.652;2023-02-28T03:44:22;0.80;1.00
11536;DHT22;5824;49.336;8.652;2023-02-28T03:47:01;0.40;1.00
11536;DHT22;5824;49.336;8.652;2023-02-28T03:49:52;0.40;1.00
11536;DHT22;5824;49.336;8.652;2023-02-28T03:52:22;0.40;1.00
11536;DHT22;5824;49.336;8.652;2023-02-28T03:54:53;0.80;1.00
11536;DHT22;5824;49.336;8.652;2023-02-28T03:57:38;0.70;1.00
11536;DHT22;5824;49.336;8.652;2023-02-28T04:00:12;0.30;1.00
11536;DHT22;5824;49.336;8.652;2023-02-28T04:02:39;0.40;1.00
11536;DHT22;5824;49.336;8.652;2023-02-28T04:05:06;0.70;1.00
11536;DHT22;5824;49.336;8.652;2023-02-28T04:07:32;0.40;1.00
11536;DHT22;5824;49.336;8.652;2023-02-28T04:09:58;0.40;1.00
11536;DHT22;5824;49.336;8.652;2023-02-28T04:12:23;0.70;1.00
11536;DHT22;5824;49.336;8.652;2023-02-28T04:14:49;0.40;1.00
11536;DHT22;5824;49.336;8.652;2023-02-28T04:17:16;0.70;1.00
11536;DHT22;5824;49.336;8.652;2023-02-28T04:19:41;0.30;1.00
11536;DHT22;5824;49.336;8.652;2023-02-28T04:22:08;0.80;1.00
11536;DHT22;5824;49.336;8.652;2023-02-28T04:24:34;0.40;1.00
11536;DHT22;5824;49.336;8.652;2023-02-28T04:27:00;0.90;1.00
11536;DHT22;5824;49.336;8.652;2023-02-28T04:29:30;0.40;1.00
11536;DHT22;5824;49.336;8.652;2023-02-28T04:31:58;0.40;1.00
11536;DHT22;5824;49.336;8.652;2023-02-28T04:34:24;0.40;1.00
11536;DHT22;5824;49.336;8.652;2023-02-28T04:36:50;0.90;1.00
11536;DHT22;5824;49.336;8.652;2023-02-28T04:39:19;0.70;1.00
11536;DHT22;5824;49.336;8.652;2023-02-28T04:41:45;0.40;1.00
11536;DHT22;5824;49.336;8.652;2023-02-28T04:44:11;0.80;1.00
11536;DHT22;5824;49.336;8.652;2023-02-28T04:46:37;0.50;1.00
11536;DHT22;5824;49.336;8.652;2023-02-28T04:49:02;0.90;1.00
11536;DHT22;5824;49.336;8.652;2023-02-28T04:51:28;0.60;1.00
11536;DHT22;5824;49.336;8.652;2023-02-28T04:53:53;0.70;1.00
11536;DHT22;5824;49.336;8.652;2023-02-28T04:56:19;0.90;1.00
11536;DHT22;5824;49.336;8.652;2023-02-28T04:58:46;0.90;1.00
11536;DHT22;5824;49.336;8.652;2023-02-28T05:01:21;0.90;1.00
11536;DHT22;5824;49.336;8.652;2023-02-28T05:03:48;1.30;1.00
11536;DHT22;5824;49.336;8.652;2023-02-28T05:06:14;1.20;1.00
11536;DHT22;5824;49.336;8.652;2023-02-28T05:08:40;1.40;1.00
11536;DHT22;5824;49.336;8.652;2023-02-28T05:11:26;1.30;1.00
11536;DHT22;5824;49.336;8.652;2023-02-28T05:13:54;1.40;1.00
11536;DHT22;5824;49.336;8.652;2023-02-28T05:16:19;1.00;1.00
11536;DHT22;5824;49.336;8.652;2023-02-28T05:18:45;1.60;1.00
11536;DHT22;5824;49.336;8.652;2023-02-28T05:21:24;1.50;1.00
11536;DHT22;5824;49.336;8.652;2023-02-28T05:23:50;1.10;1.00
11536;DHT22;5824;49.336;8.652;2023-02-28T05:26:16;1.50;1.00
11536;DHT22;5824;49.336;8.652;2023-02-28T05:28:42;1.70;1.00
11536;DHT22;5824;49.336;8.652;2023-02-28T05:31:10;1.20;1.00
11536;DHT22;5824;49.336;8.652;2023-02-28T05:33:36;1.30;1.00
11536;DHT22;5824;49.336;8.652;2023-02-28T05:36:01;1.30;1.00
11536;DHT22;5824;49.336;8.652;2023-02-28T05:38:27;1.30;1.00
11536;DHT22;5824;49.336;8.652;2023-02-28T05:40:52;1.70;1.00
11536;DHT22;5824;49.336;8.652;2023-02-28T05:43:18;1.40;1.00
11536;DHT22;5824;49.336;8.652;2023-02-28T05:45:44;1.80;1.00
11536;DHT22;5824;49.336;8.652;2023-02-28T05:48:09;1.70;1.00
11536;DHT22;5824;49.336;8.652;2023-02-28T05:50:35;1.80;1.00
11536;DHT22;5824;49.336;8.652;2023-02-28T05:53:01;1.80;1.00
11536;DHT22;5824;49.336;8.652;2023-02-28T05:55:26;1.90;1.00
11536;DHT22;5824;49.336;8.652;2023-02-28T05:57:52;1.60;1.00
11536;DHT22;5824;49.336;8.652;2023-02-28T06:00:18;1.70;1.00
11536;DHT22;5824;49.336;8.652;2023-02-28T06:02:44;1.20;1.00
11536;DHT22;5824;49.336;8.652;2023-02-28T06:05:17;1.60;1.00
11536;DHT22;5824;49.336;8.652;2023-02-28T06:07:43;1.10;1.00
11536;DHT22;5824;49.336;8.652;2023-02-28T06:10:12;1.10;1.00
11536;DHT22;5824;49.336;8.652;2023-02-28T06:12:38;1.00;1.00
11536;DHT22;5824;49.336;8.652;2023-02-28T06:15:04;1.40;1.00
11536;DHT22;5824;49.336;8.652;2023-02-28T06:17:29;1.00;1.00
11536;DHT22;5824;49.336;8.652;2023-02-28T06:19:55;1.40;1.00
11536;DHT22;5824;49.336;8.652;2023-02-28T06:22:20;1.20;1.00
11536;DHT22;5824;49.336;8.652;2023-02-28T06:24:46;1.10;1.00
11536;DHT22;5824;49.336;8.652;2023-02-28T06:27:12;1.10;1.00
11536;DHT22;5824;49.336;8.652;2023-02-28T06:29:37;1.10;1.00
11536;DHT22;5824;49.336;8.652;2023-02-28T06:32:05;1.60;1.00
11536;DHT22;5824;49.336;8.652;2023-02-28T06:34:31;1.20;1.00
11536;DHT22;5824;49.336;8.652;2023-02-28T06:36:56;1.70;1.00
11536;DHT22;5824;49.336;8.652;2023-02-28T06:39:24;1.30;1.00
11536;DHT22;5824;49.336;8.652;2023-02-28T06:41:50;1.30;1.00
11536;DHT22;5824;49.336;8.652;2023-02-28T06:44:17;1.30;1.00
11536;DHT22;5824;49.336;8.652;2023-02-28T06:46:44;1.80;1.00
11536;DHT22;5824;49.336;8.652;2023-02-28T06:49:11;1.90;1.00
11536;DHT22;5824;49.336;8.652;2023-02-28T06:51:39;1.50;1.00
11536;DHT22;5824;49.336;8.652;2023-02-28T06:54:05;1.90;1.00
11536;DHT22;5824;49.336;8.652;2023-02-28T06:56:34;2.00;1.00
11536;DHT22;5824;49.336;8.652;2023-02-28T06:59:00;1.90;1.00
11536;DHT22;5824;49.336;8.652;2023-02-28T07:01:25;2.20;1.00
11536;DHT22;5824;49.336;8.652;2023-02-28T07:03:53;2.10;1.00
11536;DHT22;5824;49.336;8.652;2023-02-28T07:06:20;2.60;1.00
11536;DHT22;5824;49.336;8.652;2023-02-28T07:08:48;2.20;1.00
11536;DHT22;5824;49.336;8.652;2023-02-28T07:11:14;2.70;1.00
11536;DHT22;5824;49.336;8.652;2023-02-28T07:13:40;2.40;1.00
11536;DHT22;5824;49.336;8.652;2023-02-28T07:16:07;2.50;1.00
11536;DHT22;5824;49.336;8.652;2023-02-28T07:18:34;2.70;1.00
11536;DHT22;5824;49.336;8.652;2023-02-28T07:21:05;3.00;1.00
11536;DHT22;5824;49.336;8.652;2023-02-28T07:23:32;3.10;1.00
11536;DHT22;5824;49.336;8.652;2023-02-28T07:25:58;3.20;1.00
11536;DHT22;5824;49.336;8.652;2023-02-28T07:28:24;3.70;1.00
11536;DHT22;5824;49.336;8.652;2023-02-28T07:30:49;3.50;1.00
11536;DHT22;5824;49.336;8.652;2023-02-28T07:33:15;3.10;1.00
11536;DHT22;5824;49.336;8.652;2023-02-28T07:35:41;3.20;1.00
11536;DHT22;5824;49.336;8.652;2023-02-28T07:38:07;2.90;1.00
11536;DHT22;5824;49.336;8.652;2023-02-28T07:40:36;3.50;1.00
11536;DHT22;5824;49.336;8.652;2023-02-28T07:43:02;3.40;1.00
11536;DHT22;5824;49.336;8.652;2023-02-28T07:45:28;3.10;1.00
11536;DHT22;5824;49.336;8.652;2023-02-28T07:47:55;3.30;1.00
11536;DHT22;5824;49.336;8.652;2023-02-28T07:50:21;3.50;1.00
11536;DHT22;5824;49.336;8.652;2023-02-28T07:52:46;3.30;1.00
11536;DHT22;5824;49.336;8.652;2023-02-28T07:55:13;3.10;1.00
11536;DHT22;5824;49.336;8.652;2023-02-28T07:57:39;3.40;1.00
11536;DHT22;5824;49.336;8.652;2023-02-28T08:00:08;3.40;1.00
11536;DHT22;5824;49.336;8.652;2023-02-28T08:02:37;2.90;1.00
11536;DHT22;5824;49.336;8.652;2023-02-28T08:05:04;3.20;1.00
11536;DHT22;5824;49.336;8.652;2023-02-28T08:07:30;2.90;1.00
11536;DHT22;5824;49.336;8.652;2023-02-28T08:09:55;3.40;1.00
11536;DHT22;5824;49.336;8.652;2023-02-28T08:12:21;3.50;1.00
11536;DHT22;5824;49.336;8.652;2023-02-28T08:14:46;3.40;1.00
11536;DHT22;5824;49.336;8.652;2023-02-28T08:17:12;3.10;1.00
11536;DHT22;5824;49.336;8.652;2023-02-28T08:19:37;3.20;1.00
11536;DHT22;5824;49.336;8.652;2023-02-28T08:22:03;3.80;1.00
11536;DHT22;5824;49.336;8.652;2023-02-28T08:24:29;3.40;1.00
11536;DHT22;5824;49.336;8.652;2023-02-28T08:26:55;3.50;1.00
11536;DHT22;5824;49.336;8.652;2023-02-28T08:29:20;3.90;1.00
11536;DHT22;5824;49.336;8.652;2023-02-28T08:31:46;3.60;1.00
11536;DHT22;5824;49.336;8.652;2023-02-28T08:34:13;3.80;1.00
11536;DHT22;5824;49.336;8.652;2023-02-28T08:36:39;3.60;1.00
11536;DHT22;5824;49.336;8.652;2023-02-28T08:39:06;4.10;1.00
11536;DHT22;5824;49.336;8.652;2023-02-28T08:41:32;3.90;1.00
11536;DHT22;5824;49.336;8.652;2023-02-28T08:43:57;3.90;1.00
11536;DHT22;5824;49.336;8.652;2023-02-28T08:46:24;3.90;1.00
11536;DHT22;5824;49.336;8.652;2023-02-28T08:48:54;4.00;1.00
11536;DHT22;5824;49.336;8.652;2023-02-28T08:51:20;3.90;1.00
11536;DHT22;5824;49.336;8.652;2023-02-28T08:53:52;4.00;1.00
11536;DHT22;5824;49.336;8.652;2023-02-28T08:56:19;4.10;1.00
11536;DHT22;5824;49.336;8.652;2023-02-28T08:58:46;4.50;1.00
11536;DHT22;5824;49.336;8.652;2023-02-28T09:01:13;4.90;1.00
11536;DHT22;5824;49.336;8.652;2023-02-28T09:03:39;6.60;1.00
11536;DHT22;5824;49.336;8.652;2023-02-28T09:06:07;8.80;1.00
11536;DHT22;5824;49.336;8.652;2023-02-28T09:08:33;10.80;1.00
11536;DHT22;5824;49.336;8.652;2023-02-28T09:10:58;12.10;1.00
11536;DHT22;5824;49.336;8.652;2023-02-28T09:13:25;13.10;1.00
11536;DHT22;5824;49.336;8.652;2023-02-28T09:15:52;13.70;1.00
11536;DHT22;5824;49.336;8.652;2023-02-28T09:18:17;14.90;1.00
11536;DHT22;5824;49.336;8.652;2023-02-28T09:20:43;15.90;1.00
11536;DHT22;5824;49.336;8.652;2023-02-28T09:23:10;16.30;1.00
11536;DHT22;5824;49.336;8.652;2023-02-28T09:25:36;16.80;1.00
11536;DHT22;5824;49.336;8.652;2023-02-28T09:28:03;17.10;1.00
11536;DHT22;5824;49.336;8.652;2023-02-28T09:30:29;17.70;1.00
11536;DHT22;5824;49.336;8.652;2023-02-28T09:32:55;17.70;1.00
11536;DHT22;5824;49.336;8.652;2023-02-28T09:35:21;18.10;1.00
11536;DHT22;5824;49.336;8.652;2023-02-28T09:37:48;18.40;1.00
11536;DHT22;5824;49.336;8.652;2023-02-28T09:40:15;19.40;1.00
11536;DHT22;5824;49.336;8.652;2023-02-28T09:42:45;19.70;1.00
11536;DHT22;5824;49.336;8.652;2023-02-28T09:45:30;19.70;1.00
11536;DHT22;5824;49.336;8.652;2023-02-28T09:48:01;19.80;1.00
11536;DHT22;5824;49.336;8.652;2023-02-28T09:50:38;19.70;1.00
11536;DHT22;5824;49.336;8.652;2023-02-28T09:53:28;20.10;1.00
11536;DHT22;5824;49.336;8.652;2023-02-28T09:56:07;20.40;1.00
11536;DHT22;5824;49.336;8.652;2023-02-28T09:58:36;20.00;1.00
11536;DHT22;5824;49.336;8.652;2023-02-28T10:01:23;19.70;1.00
11536;DHT22;5824;49.336;8.652;2023-02-28T10:04:03;20.00;1.00
11536;DHT22;5824;49.336;8.652;2023-02-28T10:06:46;20.70;1.00
11536;DHT22;5824;49.336;8.652;2023-02-28T10:11:44;20.70;1.00
11536;DHT22;5824;49.336;8.652;2023-02-28T10:14:18;20.40;1.00
11536;DHT22;5824;49.336;8.652;2023-02-28T10:17:04;20.90;1.00
11536;DHT22;5824;49.336;8.652;2023-02-28T10:22:22;20.30;1.00
11536;DHT22;5824;49.336;8.652;2023-02-28T10:24:51;20.10;1.00
11536;DHT22;5824;49.336;8.652;2023-02-28T10:27:20;19.90;1.00
11536;DHT22;5824;49.336;8.652;2023-02-28T10:29:48;20.70;1.00
11536;DHT22;5824;49.336;8.652;2023-02-28T10:32:17;20.80;1.00
11536;DHT22;5824;49.336;8.652;2023-02-28T10:34:44;20.70;1.00
11536;DHT22;5824;49.336;8.652;2023-02-28T10:37:11;21.10;1.00
11536;DHT22;5824;49.336;8.652;2023-02-28T10:39:40;21.10;1.00
11536;DHT22;5824;49.336;8.652;2023-02-28T10:42:25;20.70;1.00
11536;DHT22;5824;49.336;8.652;2023-02-28T10:45:16;20.80;1.00
11536;DHT22;5824;49.336;8.652;2023-02-28T10:47:56;21.60;1.00
11536;DHT22;5824;49.336;8.652;2023-02-28T10:52:53;21.70;1.00
11536;DHT22;5824;49.336;8.652;2023-02-28T10:55:25;22.20;1.00
11536;DHT22;5824;49.336;8.652;2023-02-28T10:57:52;21.80;1.00
11536;DHT22;5824;49.336;8.652;2023-02-28T11:00:22;21.60;1.00
11536;DHT22;5824;49.336;8.652;2023-02-28T11:02:48;21.80;1.00
11536;DHT22;5824;49.336;8.652;2023-02-28T11:07:53;22.00;1.00
11536;DHT22;5824;49.336;8.652;2023-02-28T11:10:21;22.50;1.00
11536;DHT22;5824;49.336;8.652;2023-02-28T11:12:49;23.30;1.00
11536;DHT22;5824;49.336;8.652;2023-02-28T11:15:27;23.30;1.00
11536;DHT22;5824;49.336;8.652;2023-02-28T11:20:32;24.20;1.00
11536;DHT22;5824;49.336;8.652;2023-02-28T11:23:00;24.30;1.00
11536;DHT22;5824;49.336;8.652;2023-02-28T11:25:31;24.30;1.00
11536;DHT22;5824;49.336;8.652;2023-02-28T11:28:22;24.00;1.00
11536;DHT22;5824;49.336;8.652;2023-02-28T11:33:50;25.60;1.00
11536;DHT22;5824;49.336;8.652;2023-02-28T11:36:25;25.80;1.00
11536;DHT22;5824;49.336;8.652;2023-02-28T11:38:53;24.90;1.00
11536;DHT22;5824;49.336;8.652;2023-02-28T11:41:38;24.10;1.00
11536;DHT22;5824;49.336;8.652;2023-02-28T11:47:00;25.90;1.00
11536;DHT22;5824;49.336;8.652;2023-02-28T11:52:06;25.30;1.00
11536;DHT22;5824;49.336;8.652;2023-02-28T12:02:59;22.40;1.00
11536;DHT22;5824;49.336;8.652;2023-02-28T12:05:46;22.40;1.00
11536;DHT22;5824;49.336;8.652;2023-02-28T12:09:02;22.50;1.00
11536;DHT22;5824;49.336;8.652;2023-02-28T12:11:50;22.70;1.00
11536;DHT22;5824;49.336;8.652;2023-02-28T12:14:46;21.40;1.00
11536;DHT22;5824;49.336;8.652;2023-02-28T12:17:33;20.80;1.00
11536;DHT22;5824;49.336;8.652;2023-02-28T12:20:33;20.90;1.00
11536;DHT22;5824;49.336;8.652;2023-02-28T12:25:50;21.60;1.00
11536;DHT22;5824;49.336;8.652;2023-02-28T12:28:25;20.90;1.00
11536;DHT22;5824;49.336;8.652;2023-02-28T12:31:09;19.50;1.00
11536;DHT22;5824;49.336;8.652;2023-02-28T12:33:41;20.30;1.00
11536;DHT22;5824;49.336;8.652;2023-02-28T12:36:13;21.70;1.00
11536;DHT22;5824;49.336;8.652;2023-02-28T12:38:49;21.80;1.00
11536;DHT22;5824;49.336;8.652;2023-02-28T12:44:10;20.00;1.00
11536;DHT22;5824;49.336;8.652;2023-02-28T12:46:42;18.10;1.00
11536;DHT22;5824;49.336;8.652;2023-02-28T12:49:20;18.40;1.00
11536;DHT22;5824;49.336;8.652;2023-02-28T12:51:47;19.00;1.00
11536;DHT22;5824;49.336;8.652;2023-02-28T12:57:27;22.20;1.00
11536;DHT22;5824;49.336;8.652;2023-02-28T13:00:15;23.30;1.00
11536;DHT22;5824;49.336;8.652;2023-02-28T13:10:48;22.90;1.00
11536;DHT22;5824;49.336;8.652;2023-02-28T13:13:24;22.00;1.00
11536;DHT22;5824;49.336;8.652;2023-02-28T13:16:09;20.00;1.00
11536;DHT22;5824;49.336;8.652;2023-02-28T13:18:46;17.80;1.00
11536;DHT22;5824;49.336;8.652;2023-02-28T13:21:41;15.80;1.00
11536;DHT22;5824;49.336;8.652;2023-02-28T13:24:08;14.20;1.00
11536;DHT22;5824;49.336;8.652;2023-02-28T13:39:55;18.10;1.00
11536;DHT22;5824;49.336;8.652;2023-02-28T13:47:36;14.40;1.00
11536;DHT22;5824;49.336;8.652;2023-02-28T14:01:14;16.60;1.00
11536;DHT22;5824;49.336;8.652;2023-02-28T14:06:52;17.60;1.00
11536;DHT22;5824;49.336;8.652;2023-02-28T14:09:24;18.10;1.00
11536;DHT22;5824;49.336;8.652;2023-02-28T14:11:51;18.00;1.00
11536;DHT22;5824;49.336;8.652;2023-02-28T14:17:08;17.10;1.00
11536;DHT22;5824;49.336;8.652;2023-02-28T14:19:38;16.60;1.00
11536;DHT22;5824;49.336;8.652;2023-02-28T14:22:56;16.10;1.00
11536;DHT22;5824;49.336;8.652;2023-02-28T14:27:50;15.80;1.00
11536;DHT22;5824;49.336;8.652;2023-02-28T14:30:52;15.30;1.00
11536;DHT22;5824;49.336;8.652;2023-02-28T14:33:42;14.60;1.00
11536;DHT22;5824;49.336;8.652;2023-02-28T14:36:24;14.00;1.00
11536;DHT22;5824;49.336;8.652;2023-02-28T14:38:52;13.80;1.00
11536;DHT22;5824;49.336;8.652;2023-02-28T14:41:29;13.30;1.00
11536;DHT22;5824;49.336;8.652;2023-02-28T14:43:58;13.20;1.00
11536;DHT22;5824;49.336;8.652;2023-02-28T14:46:30;13.00;1.00
11536;DHT22;5824;49.336;8.652;2023-02-28T14:48:59;12.60;1.00
11536;DHT22;5824;49.336;8.652;2023-02-28T14:51:24;12.20;1.00
11536;DHT22;5824;49.336;8.652;2023-02-28T14:53:56;11.80;1.00
11536;DHT22;5824;49.336;8.652;2023-02-28T14:56:26;11.50;1.00
11536;DHT22;5824;49.336;8.652;2023-02-28T14:58:54;11.00;1.00
11536;DHT22;5824;49.336;8.652;2023-02-28T15:01:22;10.70;1.00
11536;DHT22;5824;49.336;8.652;2023-02-28T15:03:57;10.50;1.00
11536;DHT22;5824;49.336;8.652;2023-02-28T15:06:23;10.20;1.00
11536;DHT22;5824;49.336;8.652;2023-02-28T15:09:10;10.00;1.00
11536;DHT22;5824;49.336;8.652;2023-02-28T15:11:39;10.00;1.00
11536;DHT22;5824;49.336;8.652;2023-02-28T15:14:05;10.10;1.00
11536;DHT22;5824;49.336;8.652;2023-02-28T15:16:40;10.10;1.00
11536;DHT22;5824;49.336;8.652;2023-02-28T15:19:23;9.80;1.00
11536;DHT22;5824;49.336;8.652;2023-02-28T15:21:54;9.60;1.00
11536;DHT22;5824;49.336;8.652;2023-02-28T15:24:46;9.50;1.00
11536;DHT22;5824;49.336;8.652;2023-02-28T15:27:22;9.40;1.00
11536;DHT22;5824;49.336;8.652;2023-02-28T15:29:53;9.30;1.00
11536;DHT22;5824;49.336;8.652;2023-02-28T15:34:51;9.00;1.00
11536;DHT22;5824;49.336;8.652;2023-02-28T15:40:10;8.70;1.00
11536;DHT22;5824;49.336;8.652;2023-02-28T15:42:37;8.60;1.00
11536;DHT22;5824;49.336;8.652;2023-02-28T15:45:03;8.70;1.00
11536;DHT22;5824;49.336;8.652;2023-02-28T15:47:30;8.40;1.00
11536;DHT22;5824;49.336;8.652;2023-02-28T15:50:00;8.30;1.00
11536;DHT22;5824;49.336;8.652;2023-02-28T15:52:37;8.10;1.00
11536;DHT22;5824;49.336;8.652;2023-02-28T15:55:26;7.90;1.00
11536;DHT22;5824;49.336;8.652;2023-02-28T15:57:55;7.80;1.00
11536;DHT22;5824;49.336;8.652;2023-02-28T16:00:25;7.80;1.00
11536;DHT22;5824;49.336;8.652;2023-02-28T16:02:51;7.80;1.00
11536;DHT22;5824;49.336;8.652;2023-02-28T16:05:28;7.80;1.00
11536;DHT22;5824;49.336;8.652;2023-02-28T16:07:57;7.80;1.00
11536;DHT22;5824;49.336;8.652;2023-02-28T16:10:24;7.70;1.00
11536;DHT22;5824;49.336;8.652;2023-02-28T16:12:53;7.70;1.00
11536;DHT22;5824;49.336;8.652;2023-02-28T16:15:28;7.80;1.00
11536;DHT22;5824;49.336;8.652;2023-02-28T16:17:55;7.60;1.00
11536;DHT22;5824;49.336;8.652;2023-02-28T16:20:24;7.80;1.00
11536;DHT22;5824;49.336;8.652;2023-02-28T16:22:50;7.40;1.00
11536;DHT22;5824;49.336;8.652;2023-02-28T16:25:19;7.30;1.00
11536;DHT22;5824;49.336;8.652;2023-02-28T16:27:50;7.30;1.00
11536;DHT22;5824;49.336;8.652;2023-02-28T16:30:24;7.20;1.00
11536;DHT22;5824;49.336;8.652;2023-02-28T16:32:51;7.50;1.00
11536;DHT22;5824;49.336;8.652;2023-02-28T16:35:18;7.10;1.00
11536;DHT22;5824;49.336;8.652;2023-02-28T16:37:44;7.00;1.00
11536;DHT22;5824;49.336;8.652;2023-02-28T16:40:16;7.20;1.00
11536;DHT22;5824;49.336;8.652;2023-02-28T16:42:42;7.20;1.00
11536;DHT22;5824;49.336;8.652;2023-02-28T16:45:18;7.10;1.00
11536;DHT22;5824;49.336;8.652;2023-02-28T16:47:45;6.60;1.00
11536;DHT22;5824;49.336;8.652;2023-02-28T16:50:26;6.50;1.00
11536;DHT22;5824;49.336;8.652;2023-02-28T16:52:52;6.50;1.00
11536;DHT22;5824;49.336;8.652;2023-02-28T16:55:20;6.40;1.00
11536;DHT22;5824;49.336;8.652;2023-02-28T16:57:54;6.30;1.00
11536;DHT22;5824;49.336;8.652;2023-02-28T17:00:20;6.40;1.00
11536;DHT22;5824;49.336;8.652;2023-02-28T17:02:46;6.20;1.00
11536;DHT22;5824;49.336;8.652;2023-02-28T17:05:12;6.10;1.00
11536;DHT22;5824;49.336;8.652;2023-02-28T17:07:39;6.00;1.00
11536;DHT22;5824;49.336;8.652;2023-02-28T17:10:23;5.90;1.00
11536;DHT22;5824;49.336;8.652;2023-02-28T17:12:49;6.00;1.00
11536;DHT22;5824;49.336;8.652;2023-02-28T17:15:16;6.40;1.00
11536;DHT22;5824;49.336;8.652;2023-02-28T17:17:43;6.10;1.00
11536;DHT22;5824;49.336;8.652;2023-02-28T17:20:20;5.90;1.00
11536;DHT22;5824;49.336;8.652;2023-02-28T17:22:50;5.70;1.00
11536;DHT22;5824;49.336;8.652;2023-02-28T17:25:16;5.60;1.00
11536;DHT22;5824;49.336;8.652;2023-02-28T17:27:42;5.80;1.00
11536;DHT22;5824;49.336;8.652;2023-02-28T17:32:42;5.40;1.00
11536;DHT22;5824;49.336;8.652;2023-02-28T17:35:08;5.40;1.00
11536;DHT22;5824;49.336;8.652;2023-02-28T17:37:34;5.40;1.00
11536;DHT22;5824;49.336;8.652;2023-02-28T17:39:59;5.30;1.00
11536;DHT22;5824;49.336;8.652;2023-02-28T17:42:25;5.30;1.00
11536;DHT22;5824;49.336;8.652;2023-02-28T17:44:51;5.30;1.00
11536;DHT22;5824;49.336;8.652;2023-02-28T17:47:16;5.70;1.00
11536;DHT22;5824;49.336;8.652;2023-02-28T17:49:42;5.20;1.00
11536;DHT22;5824;49.336;8.652;2023-02-28T17:52:08;5.10;1.00
11536;DHT22;5824;49.336;8.652;2023-02-28T17:54:33;5.20;1.00
11536;DHT22;5824;49.336;8.652;2023-02-28T17:56:59;5.60;1.00
11536;DHT22;5824;49.336;8.652;2023-02-28T17:59:24;5.50;1.00
11536;DHT22;5824;49.336;8.652;2023-02-28T18:01:50;5.10;1.00
11536;DHT22;5824;49.336;8.652;2023-02-28T18:04:15;5.10;1.00
11536;DHT22;5824;49.336;8.652;2023-02-28T18:06:43;5.00;1.00
11536;DHT22;5824;49.336;8.652;2023-02-28T18:09:18;5.30;1.00
11536;DHT22;5824;49.336;8.652;2023-02-28T18:11:43;5.00;1.00
11536;DHT22;5824;49.336;8.652;2023-02-28T18:14:14;5.00;1.00
11536;DHT22;5824;49.336;8.652;2023-02-28T18:16:41;5.10;1.00
11536;DHT22;5824;49.336;8.652;2023-02-28T18:19:06;5.00;1.00
11536;DHT22;5824;49.336;8.652;2023-02-28T18:21:33;5.00;1.00
11536;DHT22;5824;49.336;8.652;2023-02-28T18:24:00;5.00;1.00
11536;DHT22;5824;49.336;8.652;2023-02-28T18:26:25;4.90;1.00
11536;DHT22;5824;49.336;8.652;2023-02-28T18:28:51;5.40;1.00
11536;DHT22;5824;49.336;8.652;2023-02-28T18:31:18;5.20;1.00